Time;durP1;ratioP1;P1;durP2;ratioP2;P2;SDS_P1;SDS_P2;PMS_P1;PMS_P2;Temp;Humidity;BMP_temperature;BMP_pressure;BME280_temperature;BME280_humidity;BME280_pressure;Samples;Min_cycle;Max_cycle;Signal;HPM_P1;HPM_P2
2021/01/30 00:00:12;;;;;;;2.87;1.47;;;;;;;;;;5072659;28;20161;-76
2021/01/30 00:02:38;;;;;;;2.40;1.20;;;;;;;;;;5083606;28;20025;-76
2021/01/30 00:05:05;;;;;;;3.17;1.10;;;;;;;;;;5080268;28;20030;-75
2021/01/30 00:07:32;;;;;;;3.40;1.13;;;;;;;;;;5075709;28;20089;-76
2021/01/30 00:09:58;;;;;;;2.37;1.10;;;;;;;;;;5074885;28;20031;-76
2021/01/30 00:12:24;;;;;;;3.20;0.90;;;;;;;;;;5078880;28;20093;-76
2021/01/30 00:14:50;;;;;;;2.17;0.43;;;;;;;;;;5085983;28;20032;-75
2021/01/30 00:17:16;;;;;;;1.60;0.60;;;;;;;;;;5087763;28;20436;-76
2021/01/30 00:19:45;;;;;;;1.20;0.70;;;;;;;;;;5073006;28;20024;-75
2021/01/30 00:22:16;;;;;;;3.17;0.73;;;;;;;;;;5086684;28;20104;-75
2021/01/30 00:24:46;;;;;;;5.73;1.60;;;;;;;;;;5079331;28;20089;-75
2021/01/30 00:27:14;;;;;;;2.10;1.20;;;;;;;;;;5085310;28;20400;-76
2021/01/30 00:29:40;;;;;;;4.60;1.30;;;;;;;;;;5074121;28;20024;-75
2021/01/30 00:32:07;;;;;;;4.43;1.30;;;;;;;;;;5080010;28;20030;-75
2021/01/30 00:34:35;;;;;;;3.70;1.33;;;;;;;;;;5072054;28;20028;-75
2021/01/30 00:37:15;;;;;;;4.17;1.20;;;;;;;;;;5072844;28;20040;-75
2021/01/30 00:39:42;;;;;;;2.47;1.00;;;;;;;;;;5078095;28;20136;-75
2021/01/30 00:42:09;;;;;;;4.40;1.33;;;;;;;;;;5081643;28;20044;-75
2021/01/30 00:44:35;;;;;;;6.90;1.50;;;;;;;;;;5080369;28;20039;-75
2021/01/30 00:47:01;;;;;;;6.03;1.67;;;;;;;;;;5069526;28;20029;-76
2021/01/30 00:49:28;;;;;;;5.03;1.40;;;;;;;;;;5078843;28;20031;-75
2021/01/30 00:51:54;;;;;;;3.90;1.37;;;;;;;;;;5071005;28;20111;-75
2021/01/30 00:54:20;;;;;;;7.10;2.30;;;;;;;;;;5066804;28;20028;-75
2021/01/30 00:56:50;;;;;;;4.73;1.30;;;;;;;;;;5082181;28;20112;-75
2021/01/30 00:59:16;;;;;;;2.33;1.03;;;;;;;;;;5084869;28;20049;-75
2021/01/30 01:01:42;;;;;;;3.73;1.23;;;;;;;;;;5070495;28;20122;-76
2021/01/30 01:04:08;;;;;;;4.00;1.30;;;;;;;;;;5071221;28;20024;-75
2021/01/30 01:06:35;;;;;;;2.90;1.20;;;;;;;;;;5076925;28;20028;-76
2021/01/30 01:09:02;;;;;;;5.77;1.10;;;;;;;;;;5073898;28;20036;-74
2021/01/30 01:11:28;;;;;;;4.27;1.40;;;;;;;;;;5066257;28;20052;-75
2021/01/30 01:13:54;;;;;;;5.20;1.60;;;;;;;;;;5067118;28;20474;-75
2021/01/30 01:16:20;;;;;;;6.53;1.50;;;;;;;;;;5066087;28;20028;-75
2021/01/30 01:18:46;;;;;;;3.40;1.37;;;;;;;;;;5068508;28;20024;-76
2021/01/30 01:21:13;;;;;;;3.17;1.40;;;;;;;;;;5070781;28;20032;-75
2021/01/30 01:23:40;;;;;;;4.10;1.73;;;;;;;;;;5077492;28;20033;-76
2021/01/30 01:26:06;;;;;;;5.73;1.83;;;;;;;;;;5084423;28;20030;-75
2021/01/30 01:28:32;;;;;;;4.77;1.00;;;;;;;;;;5081540;28;20039;-75
2021/01/30 01:30:59;;;;;;;5.80;1.70;;;;;;;;;;5078518;28;20028;-76
2021/01/30 01:33:25;;;;;;;2.90;1.00;;;;;;;;;;5083586;28;20461;-76
2021/01/30 01:35:51;;;;;;;7.53;1.60;;;;;;;;;;5077578;28;20024;-75
2021/01/30 01:38:17;;;;;;;8.47;1.23;;;;;;;;;;5079431;28;20028;-76
2021/01/30 01:40:43;;;;;;;3.10;0.90;;;;;;;;;;5071117;28;20032;-75
2021/01/30 01:43:14;;;;;;;5.40;1.00;;;;;;;;;;5080162;28;20047;-75
2021/01/30 01:45:40;;;;;;;5.27;1.27;;;;;;;;;;5083801;28;20698;-76
2021/01/30 01:48:10;;;;;;;4.07;1.17;;;;;;;;;;5080874;28;20059;-76
2021/01/30 01:50:36;;;;;;;5.67;1.00;;;;;;;;;;5070881;28;20029;-76
2021/01/30 01:53:06;;;;;;;4.03;0.80;;;;;;;;;;5065818;28;20029;-76
2021/01/30 01:55:32;;;;;;;1.80;1.00;;;;;;;;;;5066729;28;20089;-75
2021/01/30 01:58:00;;;;;;;3.37;1.10;;;;;;;;;;5065666;28;20059;-75
2021/01/30 02:00:26;;;;;;;2.63;0.90;;;;;;;;;;5070489;28;20453;-75
2021/01/30 02:02:54;;;;;;;4.00;0.93;;;;;;;;;;5075758;28;20326;-75
2021/01/30 02:05:27;;;;;;;2.73;0.90;;;;;;;;;;5084668;28;20557;-76
2021/01/30 02:07:55;;;;;;;;;;;;;;;;;;5069101;28;20426;-75
2021/01/30 02:10:22;;;;;;;8.47;1.33;;;;;;;;;;5067919;28;19904;-75
2021/01/30 02:12:49;;;;;;;2.87;0.70;;;;;;;;;;5073209;28;20098;-76
2021/01/30 02:15:17;;;;;;;1.70;0.60;;;;;;;;;;5067721;28;20021;-76
2021/01/30 02:17:47;;;;;;;6.10;1.23;;;;;;;;;;5077146;28;20379;-75
2021/01/30 02:20:13;;;;;;;4.37;0.50;;;;;;;;;;5068943;28;20051;-75
2021/01/30 02:22:42;;;;;;;3.63;0.80;;;;;;;;;;5083023;28;20020;-75
2021/01/30 02:25:11;;;;;;;2.80;0.73;;;;;;;;;;5065258;28;20020;-75
2021/01/30 02:27:54;;;;;;;4.23;1.13;;;;;;;;;;5069668;28;20397;-77
2021/01/30 02:30:39;;;;;;;3.10;0.70;;;;;;;;;;5079876;28;20028;-76
2021/01/30 02:33:24;;;;;;;2.20;0.67;;;;;;;;;;5082611;28;20040;-75
2021/01/30 02:35:57;;;;;;;5.90;2.07;;;;;;;;;;5071368;28;20035;-75
2021/01/30 02:38:25;;;;;;;2.57;0.87;;;;;;;;;;5081600;28;20109;-75
2021/01/30 02:40:53;;;;;;;2.87;0.80;;;;;;;;;;5066241;28;20028;-75
2021/01/30 02:43:20;;;;;;;4.93;0.90;;;;;;;;;;5079826;28;20020;-76
2021/01/30 02:45:51;;;;;;;3.60;0.90;;;;;;;;;;5067674;28;20100;-75
2021/01/30 02:48:19;;;;;;;3.47;1.00;;;;;;;;;;5078571;28;20028;-75
2021/01/30 02:50:46;;;;;;;4.80;1.10;;;;;;;;;;5078024;28;20111;-75
2021/01/30 02:53:17;;;;;;;3.17;0.80;;;;;;;;;;5084893;28;20054;-76
2021/01/30 02:55:44;;;;;;;4.30;1.00;;;;;;;;;;5068209;28;20489;-75
2021/01/30 02:58:11;;;;;;;3.77;1.10;;;;;;;;;;5065189;28;20020;-75
2021/01/30 03:00:38;;;;;;;4.13;1.40;;;;;;;;;;5069601;28;20028;-76
2021/01/30 03:03:04;;;;;;;2.87;0.93;;;;;;;;;;5087357;28;20098;-76
2021/01/30 03:05:30;;;;;;;5.47;0.80;;;;;;;;;;5079762;28;20024;-76
2021/01/30 03:08:02;;;;;;;4.23;1.23;;;;;;;;;;5066883;28;20109;-75
2021/01/30 03:10:52;;;;;;;3.77;0.90;;;;;;;;;;5067805;28;20587;-77
2021/01/30 03:13:22;;;;;;;3.97;1.53;;;;;;;;;;5066745;28;20137;-76
2021/01/30 03:15:57;;;;;;;4.33;1.20;;;;;;;;;;5084650;28;20036;-77
2021/01/30 03:18:26;;;;;;;2.63;1.20;;;;;;;;;;5067131;28;20028;-75
2021/01/30 03:20:53;;;;;;;3.20;0.90;;;;;;;;;;5071113;28;20055;-76
2021/01/30 03:23:20;;;;;;;3.27;1.70;;;;;;;;;;5084463;28;20031;-75
2021/01/30 03:25:46;;;;;;;6.40;1.60;;;;;;;;;;5090685;28;20148;-77
2021/01/30 03:28:13;;;;;;;3.33;0.80;;;;;;;;;;5082375;28;20033;-75
2021/01/30 03:30:39;;;;;;;3.87;0.77;;;;;;;;;;5088554;28;20036;-78
2021/01/30 03:33:07;;;;;;;1.30;0.67;;;;;;;;;;5074516;28;20058;-76
2021/01/30 03:35:33;;;;;;;2.83;0.80;;;;;;;;;;5068618;28;20034;-75
2021/01/30 03:37:59;;;;;;;2.27;0.80;;;;;;;;;;5070448;28;20085;-78
2021/01/30 03:40:26;;;;;;;4.67;0.90;;;;;;;;;;5081542;28;20438;-75
2021/01/30 03:42:52;;;;;;;6.53;1.77;;;;;;;;;;5080249;28;20024;-77
2021/01/30 03:45:20;;;;;;;10.80;1.27;;;;;;;;;;5084815;28;20035;-75
2021/01/30 03:47:46;;;;;;;3.50;0.90;;;;;;;;;;5070739;28;20024;-75
2021/01/30 03:50:13;;;;;;;3.37;0.90;;;;;;;;;;5069291;28;20393;-76
2021/01/30 03:52:39;;;;;;;4.07;0.87;;;;;;;;;;5076109;28;20031;-75
2021/01/30 03:55:08;;;;;;;3.90;0.80;;;;;;;;;;5074158;28;20550;-75
2021/01/30 03:57:34;;;;;;;4.00;0.80;;;;;;;;;;5079619;28;20059;-75
2021/01/30 04:00:00;;;;;;;0.70;0.40;;;;;;;;;;5071958;28;20769;-76
2021/01/30 04:02:26;;;;;;;2.70;0.50;;;;;;;;;;5080491;28;20077;-76
2021/01/30 04:04:53;;;;;;;2.03;0.67;;;;;;;;;;5089178;28;20028;-75
2021/01/30 04:07:19;;;;;;;2.07;0.57;;;;;;;;;;5095479;28;20068;-75
2021/01/30 04:09:45;;;;;;;0.83;0.40;;;;;;;;;;5074060;28;20031;-76
2021/01/30 04:12:11;;;;;;;1.27;0.50;;;;;;;;;;5076397;28;20032;-76
2021/01/30 04:14:37;;;;;;;1.57;0.40;;;;;;;;;;5087403;28;20107;-76
2021/01/30 04:17:04;;;;;;;2.67;0.30;;;;;;;;;;5077994;28;20029;-75
2021/01/30 04:19:30;;;;;;;2.77;0.50;;;;;;;;;;5063986;28;20169;-75
2021/01/30 04:21:56;;;;;;;0.93;0.20;;;;;;;;;;5074505;28;20032;-76
2021/01/30 04:24:22;;;;;;;0.87;0.30;;;;;;;;;;5085167;28;20506;-76
2021/01/30 04:26:49;;;;;;;2.90;0.60;;;;;;;;;;5082916;28;20773;-78
2021/01/30 04:29:15;;;;;;;0.73;0.33;;;;;;;;;;5076337;28;20028;-76
2021/01/30 04:31:41;;;;;;;2.30;0.50;;;;;;;;;;5075042;28;20036;-76
2021/01/30 04:34:07;;;;;;;5.40;1.00;;;;;;;;;;5067330;28;20370;-75
2021/01/30 04:36:34;;;;;;;6.43;1.10;;;;;;;;;;5064783;28;20677;-76
2021/01/30 04:39:00;;;;;;;4.57;1.20;;;;;;;;;;5066722;28;20783;-77
2021/01/30 04:41:41;;;;;;;3.43;1.10;;;;;;;;;;5082102;28;20028;-75
2021/01/30 04:44:28;;;;;;;3.73;1.50;;;;;;;;;;5074660;28;20537;-76
2021/01/30 04:47:14;;;;;;;3.23;1.30;;;;;;;;;;5070194;28;20030;-75
2021/01/30 04:49:59;;;;;;;2.67;1.13;;;;;;;;;;5073809;28;20036;-75
2021/01/30 04:52:32;;;;;;;2.53;1.30;;;;;;;;;;5067727;28;20046;-75
2021/01/30 04:55:08;;;;;;;2.70;1.30;;;;;;;;;;5093528;28;20026;-75
2021/01/30 04:57:40;;;;;;;3.47;1.40;;;;;;;;;;5080506;28;20041;-78
2021/01/30 05:00:29;;;;;;;4.30;1.23;;;;;;;;;;5074228;28;20104;-76
2021/01/30 05:03:03;;;;;;;3.27;1.23;;;;;;;;;;5075205;28;20024;-75
2021/01/30 05:05:29;;;;;;;;;;;;;;;;;;5084854;28;20032;-76
2021/01/30 05:07:58;;;;;;;3.77;1.40;;;;;;;;;;5073347;28;19908;-77
2021/01/30 05:10:27;;;;;;;4.57;1.83;;;;;;;;;;5077153;28;20116;-77
2021/01/30 05:12:53;;;;;;;3.63;1.63;;;;;;;;;;5081782;28;20028;-75
2021/01/30 05:15:22;;;;;;;4.63;1.57;;;;;;;;;;5074126;28;20481;-76
2021/01/30 05:18:00;;;;;;;3.53;1.50;;;;;;;;;;5070758;28;20072;-77
2021/01/30 05:20:32;;;;;;;5.07;1.63;;;;;;;;;;5076130;28;20103;-78
2021/01/30 05:22:59;;;;;;;4.07;1.40;;;;;;;;;;5068737;28;20401;-77
2021/01/30 05:25:25;;;;;;;4.93;1.43;;;;;;;;;;5072106;28;20027;-76
2021/01/30 05:27:51;;;;;;;1.67;0.90;;;;;;;;;;5086319;28;20406;-76
2021/01/30 05:30:18;;;;;;;3.13;0.90;;;;;;;;;;5076435;28;20032;-76
2021/01/30 05:32:49;;;;;;;2.50;1.30;;;;;;;;;;5080024;28;20638;-75
2021/01/30 05:35:22;;;;;;;3.23;1.17;;;;;;;;;;5079257;28;20024;-75
2021/01/30 05:37:52;;;;;;;2.30;1.00;;;;;;;;;;5066753;28;20033;-76
2021/01/30 05:40:30;;;;;;;4.20;1.00;;;;;;;;;;5085356;28;20028;-77
2021/01/30 05:43:02;;;;;;;1.50;0.67;;;;;;;;;;5067764;28;20211;-76
2021/01/30 05:45:57;;;;;;;5.97;1.10;;;;;;;;;;5070022;28;20024;-76
2021/01/30 05:48:28;;;;;;;2.77;0.70;;;;;;;;;;5050144;28;20040;-78
2021/01/30 05:50:58;;;;;;;9.10;1.20;;;;;;;;;;5079069;28;20754;-77
2021/01/30 05:53:28;;;;;;;3.03;0.70;;;;;;;;;;5080055;28;20054;-75
2021/01/30 05:55:55;;;;;;;3.40;0.67;;;;;;;;;;5066871;28;20024;-76
2021/01/30 05:58:22;;;;;;;2.60;0.80;;;;;;;;;;5066815;28;20130;-76
2021/01/30 06:00:48;;;;;;;4.73;0.90;;;;;;;;;;5073900;28;20843;-76
2021/01/30 06:03:21;;;;;;;7.27;1.63;;;;;;;;;;5081696;28;20024;-76
2021/01/30 06:05:51;;;;;;;4.63;0.80;;;;;;;;;;5069769;28;20565;-76
2021/01/30 06:08:20;;;;;;;2.03;0.73;;;;;;;;;;5068621;28;20623;-75
2021/01/30 06:10:48;;;;;;;4.57;0.77;;;;;;;;;;5073918;28;20051;-77
2021/01/30 06:13:25;;;;;;;1.50;0.70;;;;;;;;;;5082832;28;20039;-77
2021/01/30 06:15:54;;;;;;;4.77;0.77;;;;;;;;;;5071632;28;20105;-75
2021/01/30 06:18:26;;;;;;;1.77;0.73;;;;;;;;;;5072629;28;20384;-76
2021/01/30 06:21:05;;;;;;;4.43;1.30;;;;;;;;;;5066481;28;20024;-75
2021/01/30 06:23:31;;;;;;;6.47;0.93;;;;;;;;;;5069874;28;20032;-74
2021/01/30 06:26:05;;;;;;;8.70;1.30;;;;;;;;;;5081860;28;20811;-76
2021/01/30 06:28:33;;;;;;;10.10;1.70;;;;;;;;;;5082882;28;20031;-75
2021/01/30 06:31:12;;;;;;;5.50;0.90;;;;;;;;;;5084293;28;20043;-75
2021/01/30 06:33:43;;;;;;;3.73;0.97;;;;;;;;;;5070958;28;20147;-75
2021/01/30 06:36:11;;;;;;;8.20;1.60;;;;;;;;;;5083580;28;20088;-75
2021/01/30 06:38:43;;;;;;;11.97;2.97;;;;;;;;;;5081272;28;20032;-75
2021/01/30 06:41:16;;;;;;;10.87;1.70;;;;;;;;;;5080232;28;20024;-75
2021/01/30 06:43:42;;;;;;;;;;;;;;;;;;5077014;28;20024;-76
2021/01/30 06:46:13;;;;;;;9.97;1.40;;;;;;;;;;5080522;28;19911;-76
2021/01/30 06:48:44;;;;;;;4.87;1.07;;;;;;;;;;5076756;28;20028;-76
2021/01/30 06:51:21;;;;;;;6.30;1.10;;;;;;;;;;5069944;28;20024;-75
2021/01/30 06:53:47;;;;;;;9.80;1.37;;;;;;;;;;5064819;28;20033;-77
2021/01/30 06:56:20;;;;;;;6.17;1.30;;;;;;;;;;5070837;28;20028;-76
2021/01/30 06:58:48;;;;;;;2.75;1.20;;;;;;;;;;5076864;28;20092;-76
2021/01/30 07:01:18;;;;;;;4.83;1.23;;;;;;;;;;5078358;28;20031;-76
2021/01/30 07:04:00;;;;;;;14.10;1.40;;;;;;;;;;5077652;28;20028;-77
2021/01/30 07:06:30;;;;;;;6.13;1.33;;;;;;;;;;5065180;28;20166;-76
2021/01/30 07:09:14;;;;;;;10.03;1.60;;;;;;;;;;5082614;28;20052;-76
2021/01/30 07:11:49;;;;;;;6.20;1.30;;;;;;;;;;5077478;28;20567;-76
2021/01/30 07:14:34;;;;;;;4.37;1.20;;;;;;;;;;5067057;28;20029;-75
2021/01/30 07:17:03;;;;;;;14.50;2.23;;;;;;;;;;5071150;28;20032;-77
2021/01/30 07:19:48;;;;;;;11.73;1.77;;;;;;;;;;5067107;28;20111;-76
2021/01/30 07:22:18;;;;;;;9.40;1.57;;;;;;;;;;5072366;28;20097;-78
2021/01/30 07:24:55;;;;;;;7.63;1.50;;;;;;;;;;5077917;28;20059;-76
2021/01/30 07:27:33;;;;;;;10.90;2.10;;;;;;;;;;5072942;28;20035;-76
2021/01/30 07:30:05;;;;;;;8.13;1.20;;;;;;;;;;5089291;28;20097;-76
2021/01/30 07:32:39;;;;;;;13.20;2.63;;;;;;;;;;5078432;28;20028;-76
2021/01/30 07:35:05;;;;;;;;;;;;;;;;;;5065154;28;20544;-75
2021/01/30 07:37:44;;;;;;;5.93;1.10;;;;;;;;;;5069584;28;19916;-76
2021/01/30 07:40:30;;;;;;;6.53;1.43;;;;;;;;;;5069937;28;20047;-76
2021/01/30 07:43:02;;;;;;;10.17;1.83;;;;;;;;;;5037237;28;20066;-76
2021/01/30 07:45:30;;;;;;;8.83;2.37;;;;;;;;;;5082770;28;20027;-76
2021/01/30 07:48:09;;;;;;;11.63;1.77;;;;;;;;;;5071311;28;20059;-76
2021/01/30 07:50:37;;;;;;;11.53;1.87;;;;;;;;;;5073446;28;20040;-78
2021/01/30 07:53:12;;;;;;;11.67;1.67;;;;;;;;;;5068996;28;20098;-77
2021/01/30 07:55:44;;;;;;;11.10;1.77;;;;;;;;;;5068385;28;20035;-76
2021/01/30 07:58:13;;;;;;;11.37;1.53;;;;;;;;;;5070154;28;20114;-76
2021/01/30 08:00:47;;;;;;;12.47;2.83;;;;;;;;;;5066795;28;20279;-76
2021/01/30 08:03:13;;;;;;;;;;;;;;;;;;5072333;28;20036;-78
2021/01/30 08:05:44;;;;;;;6.63;1.40;;;;;;;;;;5076606;28;19919;-76
2021/01/30 08:08:17;;;;;;;8.97;1.40;;;;;;;;;;5083648;28;20032;-75
2021/01/30 08:10:50;;;;;;;8.63;1.60;;;;;;;;;;5073813;28;20028;-75
2021/01/30 08:13:34;;;;;;;13.18;3.00;;;;;;;;;;5066428;28;20639;-76
2021/01/30 08:16:05;;;;;;;12.83;1.87;;;;;;;;;;5064014;28;20041;-76
2021/01/30 08:23:45;;;;;;;8.37;1.57;;;;;;;;;;5083695;28;20043;-76
2021/01/30 08:26:23;;;;;;;10.23;1.50;;;;;;;;;;5071980;28;20040;-77
2021/01/30 08:28:55;;;;;;;12.13;1.70;;;;;;;;;;5087996;28;20044;-77
2021/01/30 08:31:39;;;;;;;9.97;2.80;;;;;;;;;;5072113;28;20075;-77
2021/01/30 08:34:25;;;;;;;8.33;1.97;;;;;;;;;;5075366;28;20070;-77
2021/01/30 08:36:52;;;;;;;12.60;2.90;;;;;;;;;;5072959;28;20065;-79
2021/01/30 08:39:22;;;;;;;8.07;1.60;;;;;;;;;;5061276;28;20047;-77
2021/01/30 08:41:58;;;;;;;9.27;1.63;;;;;;;;;;5069448;28;20107;-77
2021/01/30 08:44:38;;;;;;;11.10;2.67;;;;;;;;;;5076353;28;20034;-78
2021/01/30 08:47:11;;;;;;;9.67;1.73;;;;;;;;;;5073035;28;20024;-78
2021/01/30 08:49:37;;;;;;;11.90;1.80;;;;;;;;;;5086302;28;20028;-77
2021/01/30 08:52:12;;;;;;;10.87;1.97;;;;;;;;;;5078165;28;20036;-77
2021/01/30 08:54:38;;;;;;;16.33;2.53;;;;;;;;;;5070947;28;20024;-78
2021/01/30 08:57:05;;;;;;;11.93;2.17;;;;;;;;;;5069881;28;20036;-78
2021/01/30 08:59:46;;;;;;;11.93;2.00;;;;;;;;;;5090117;28;20499;-77
2021/01/30 09:02:32;;;;;;;12.07;2.53;;;;;;;;;;5089745;28;20066;-77
2021/01/30 09:05:06;;;;;;;13.67;2.30;;;;;;;;;;5066979;28;20214;-77
2021/01/30 09:07:37;;;;;;;15.63;2.20;;;;;;;;;;5079686;28;20472;-77
2021/01/30 09:10:28;;;;;;;9.33;2.00;;;;;;;;;;5024403;28;20025;-77
2021/01/30 09:13:03;;;;;;;18.67;6.53;;;;;;;;;;5020159;28;20037;-76
2021/01/30 09:15:39;;;;;;;7.43;1.87;;;;;;;;;;5020932;28;20132;-77
2021/01/30 09:18:09;;;;;;;14.40;3.97;;;;;;;;;;5032421;28;20034;-78
2021/01/30 09:20:38;;;;;;;10.83;1.97;;;;;;;;;;5029238;28;20497;-78
2021/01/30 09:23:16;;;;;;;12.37;3.10;;;;;;;;;;5023546;28;20473;-77
2021/01/30 09:25:49;;;;;;;8.67;1.60;;;;;;;;;;5026469;28;20028;-78
2021/01/30 09:28:15;;;;;;;10.85;2.28;;;;;;;;;;5030335;28;20045;-79
2021/01/30 09:31:01;;;;;;;12.20;3.47;;;;;;;;;;5026263;28;20232;-77
2021/01/30 09:33:30;;;;;;;9.40;1.77;;;;;;;;;;5036770;28;20132;-77
2021/01/30 09:36:15;;;;;;;9.87;2.10;;;;;;;;;;5035033;28;20079;-77
2021/01/30 09:38:45;;;;;;;14.83;2.93;;;;;;;;;;5028354;28;20064;-77
2021/01/30 09:41:31;;;;;;;10.40;3.00;;;;;;;;;;5029108;28;20099;-77
2021/01/30 09:44:17;;;;;;;11.40;2.07;;;;;;;;;;5033426;28;20473;-77
2021/01/30 09:46:45;;;;;;;13.63;3.90;;;;;;;;;;5029591;28;20375;-77
2021/01/30 09:49:22;;;;;;;13.87;3.20;;;;;;;;;;5036611;28;20581;-77
2021/01/30 09:51:48;;;;;;;7.80;2.10;;;;;;;;;;5027480;28;20029;-77
2021/01/30 09:54:16;;;;;;;11.73;4.70;;;;;;;;;;5029308;28;20025;-78
2021/01/30 09:56:42;;;;;;;12.70;3.83;;;;;;;;;;5026199;28;20048;-77
2021/01/30 09:59:09;;;;;;;14.23;2.80;;;;;;;;;;5025059;28;20539;-77
2021/01/30 10:01:39;;;;;;;10.63;1.87;;;;;;;;;;5029600;28;20048;-76
2021/01/30 10:04:23;;;;;;;12.73;1.80;;;;;;;;;;5027405;28;20537;-78
2021/01/30 10:06:51;;;;;;;17.37;2.37;;;;;;;;;;5023608;28;20018;-76
2021/01/30 10:09:21;;;;;;;12.60;2.27;;;;;;;;;;5030046;28;20546;-76
2021/01/30 10:11:50;;;;;;;10.90;1.63;;;;;;;;;;5026752;28;20022;-77
2021/01/30 10:14:19;;;;;;;8.33;1.73;;;;;;;;;;5028773;28;20028;-77
2021/01/30 10:16:55;;;;;;;10.70;2.63;;;;;;;;;;5031738;28;20097;-76
2021/01/30 10:19:24;;;;;;;11.87;2.60;;;;;;;;;;5028781;28;20022;-76
2021/01/30 10:21:50;;;;;;;11.93;2.40;;;;;;;;;;5031205;28;20014;-77
2021/01/30 10:24:25;;;;;;;12.97;3.27;;;;;;;;;;5037688;28;20037;-76
2021/01/30 10:26:53;;;;;;;10.93;1.80;;;;;;;;;;5031630;28;20501;-76
2021/01/30 10:29:20;;;;;;;11.90;3.17;;;;;;;;;;5022899;28;20035;-76
2021/01/30 10:31:50;;;;;;;13.57;2.87;;;;;;;;;;5024068;28;20454;-77
2021/01/30 10:34:19;;;;;;;10.10;3.97;;;;;;;;;;5027708;28;20434;-76
2021/01/30 10:37:04;;;;;;;10.53;2.20;;;;;;;;;;5020637;28;20029;-75
2021/01/30 10:39:36;;;;;;;14.77;3.13;;;;;;;;;;5026175;28;20103;-75
2021/01/30 10:42:08;;;;;;;11.47;3.10;;;;;;;;;;5033712;28;20022;-76
2021/01/30 10:44:35;;;;;;;10.47;2.77;;;;;;;;;;5040222;28;20105;-76
2021/01/30 10:47:02;;;;;;;9.37;2.30;;;;;;;;;;5025906;28;20029;-77
2021/01/30 10:49:29;;;;;;;10.10;2.43;;;;;;;;;;5030060;28;20044;-75
2021/01/30 10:52:06;;;;;;;16.03;5.87;;;;;;;;;;5024687;28;20030;-75
2021/01/30 10:54:33;;;;;;;12.80;3.70;;;;;;;;;;5022615;28;20025;-78
2021/01/30 10:57:07;;;;;;;9.47;1.97;;;;;;;;;;5023164;28;20652;-75
2021/01/30 11:00:02;;;;;;;11.53;2.30;;;;;;;;;;5022822;28;20020;-75
2021/01/30 11:02:29;;;;;;;9.07;1.90;;;;;;;;;;5003639;28;20032;-76
2021/01/30 11:05:02;;;;;;;12.50;3.20;;;;;;;;;;5024032;28;20017;-76
2021/01/30 11:07:36;;;;;;;10.13;2.30;;;;;;;;;;5024898;28;20029;-77
2021/01/30 11:10:03;;;;;;;11.90;2.47;;;;;;;;;;5023868;28;20021;-75
2021/01/30 11:12:30;;;;;;;8.60;1.70;;;;;;;;;;5026521;28;20059;-78
2021/01/30 11:14:56;;;;;;;10.27;3.10;;;;;;;;;;5027083;28;20056;-76
2021/01/30 11:17:27;;;;;;;16.77;5.03;;;;;;;;;;5016228;28;20057;-75
2021/01/30 11:19:53;;;;;;;13.60;3.07;;;;;;;;;;5027518;28;20025;-75
2021/01/30 11:22:22;;;;;;;14.47;3.33;;;;;;;;;;5027090;28;20033;-77
2021/01/30 11:25:09;;;;;;;11.30;3.10;;;;;;;;;;5031532;28;20021;-76
2021/01/30 11:27:41;;;;;;;13.87;3.77;;;;;;;;;;5025793;28;20033;-76
2021/01/30 11:30:11;;;;;;;14.30;2.90;;;;;;;;;;5025496;28;20029;-76
2021/01/30 11:32:37;;;;;;;8.10;2.00;;;;;;;;;;5025186;28;20488;-76
2021/01/30 11:35:04;;;;;;;15.90;2.53;;;;;;;;;;5024565;28;20033;-76
2021/01/30 11:37:32;;;;;;;11.47;2.40;;;;;;;;;;5018721;28;20107;-76
2021/01/30 11:40:09;;;;;;;13.40;2.73;;;;;;;;;;5021514;28;20083;-75
2021/01/30 11:42:35;;;;;;;11.70;2.07;;;;;;;;;;5018152;28;20548;-76
2021/01/30 11:45:01;;;;;;;8.60;2.30;;;;;;;;;;5027693;28;20030;-75
2021/01/30 11:47:27;;;;;;;8.60;2.30;;;;;;;;;;5025370;28;20109;-76
2021/01/30 11:49:53;;;;;;;15.60;2.27;;;;;;;;;;5029170;28;20033;-76
2021/01/30 11:52:19;;;;;;;12.87;3.33;;;;;;;;;;5042904;28;20029;-76
2021/01/30 11:54:46;;;;;;;9.07;1.77;;;;;;;;;;5021892;28;20693;-76
2021/01/30 11:57:12;;;;;;;7.53;1.90;;;;;;;;;;5032000;28;20034;-76
2021/01/30 11:59:38;;;;;;;13.87;3.77;;;;;;;;;;5026463;28;20026;-75
2021/01/30 12:02:04;;;;;;;9.53;2.47;;;;;;;;;;5031936;28;20026;-74
2021/01/30 12:04:30;;;;;;;10.40;1.93;;;;;;;;;;5032042;28;20037;-74
2021/01/30 12:06:56;;;;;;;12.57;1.97;;;;;;;;;;5031968;28;20529;-74
2021/01/30 12:09:22;;;;;;;10.33;2.40;;;;;;;;;;5025889;28;20029;-77
2021/01/30 12:11:48;;;;;;;7.10;1.80;;;;;;;;;;5025352;28;20025;-75
2021/01/30 12:14:14;;;;;;;9.50;2.37;;;;;;;;;;5023182;28;20072;-75
2021/01/30 12:16:40;;;;;;;8.07;1.93;;;;;;;;;;5027169;28;20038;-75
2021/01/30 12:19:06;;;;;;;8.23;1.77;;;;;;;;;;5031673;28;20033;-76
2021/01/30 12:21:33;;;;;;;14.37;2.30;;;;;;;;;;5023028;28;20037;-73
2021/01/30 12:23:59;;;;;;;7.87;1.63;;;;;;;;;;5034098;28;20033;-75
2021/01/30 12:26:28;;;;;;;5.57;1.73;;;;;;;;;;5031292;28;20029;-76
2021/01/30 12:28:54;;;;;;;6.20;1.13;;;;;;;;;;5030294;28;20017;-75
2021/01/30 12:31:20;;;;;;;7.03;1.30;;;;;;;;;;5032686;28;20025;-77
2021/01/30 12:33:46;;;;;;;10.87;1.57;;;;;;;;;;5030058;28;20040;-76
2021/01/30 12:36:13;;;;;;;9.53;1.47;;;;;;;;;;5023822;28;20161;-76
2021/01/30 12:38:39;;;;;;;4.57;0.90;;;;;;;;;;5026214;28;20037;-76
2021/01/30 12:41:06;;;;;;;3.93;1.00;;;;;;;;;;5027032;28;20034;-76
2021/01/30 12:43:32;;;;;;;4.40;0.73;;;;;;;;;;5026670;28;20163;-76
2021/01/30 12:46:00;;;;;;;2.63;0.87;;;;;;;;;;5018140;28;20032;-76
2021/01/30 12:48:26;;;;;;;3.70;0.97;;;;;;;;;;5022435;28;20029;-76
2021/01/30 12:50:54;;;;;;;4.63;1.27;;;;;;;;;;5024039;28;20131;-77
2021/01/30 12:53:20;;;;;;;5.23;0.80;;;;;;;;;;5030091;28;20030;-77
2021/01/30 12:55:46;;;;;;;2.97;0.53;;;;;;;;;;5028215;28;20040;-77
2021/01/30 12:58:13;;;;;;;6.97;1.27;;;;;;;;;;5030284;28;20044;-77
2021/01/30 13:00:39;;;;;;;3.93;1.40;;;;;;;;;;5030940;28;20031;-77
2021/01/30 13:03:05;;;;;;;5.57;1.30;;;;;;;;;;5029989;28;20486;-78
2021/01/30 13:05:31;;;;;;;5.77;1.10;;;;;;;;;;5025760;28;20029;-77
2021/01/30 13:07:57;;;;;;;6.73;1.93;;;;;;;;;;5027216;28;20083;-76
2021/01/30 13:10:24;;;;;;;5.57;1.07;;;;;;;;;;5029198;28;20037;-77
2021/01/30 13:12:50;;;;;;;4.77;1.13;;;;;;;;;;5029833;28;20033;-76
2021/01/30 13:15:17;;;;;;;4.63;1.37;;;;;;;;;;5030658;28;20021;-76
2021/01/30 13:17:43;;;;;;;4.43;1.23;;;;;;;;;;5029180;28;20048;-76
2021/01/30 13:20:10;;;;;;;5.67;1.30;;;;;;;;;;5031453;28;20025;-76
2021/01/30 13:22:36;;;;;;;8.80;1.43;;;;;;;;;;5028395;28;20112;-76
2021/01/30 13:25:03;;;;;;;6.20;1.60;;;;;;;;;;5017858;28;20030;-77
2021/01/30 13:27:29;;;;;;;6.57;1.60;;;;;;;;;;5027840;28;20032;-76
2021/01/30 13:29:55;;;;;;;5.03;1.47;;;;;;;;;;5032982;28;20037;-77
2021/01/30 13:32:22;;;;;;;10.37;4.00;;;;;;;;;;5021976;28;20033;-76
2021/01/30 13:34:49;;;;;;;8.70;2.10;;;;;;;;;;5028329;28;20029;-76
2021/01/30 13:37:15;;;;;;;11.43;3.47;;;;;;;;;;5039505;28;20033;-75
2021/01/30 13:39:42;;;;;;;13.93;4.37;;;;;;;;;;5031192;28;20032;-76
2021/01/30 13:42:08;;;;;;;13.80;3.17;;;;;;;;;;5028770;28;20033;-76
2021/01/30 13:44:34;;;;;;;11.47;3.73;;;;;;;;;;5026432;28;20109;-76
2021/01/30 13:47:00;;;;;;;11.87;3.83;;;;;;;;;;5026100;28;20054;-76
2021/01/30 13:49:27;;;;;;;8.27;2.17;;;;;;;;;;5026768;28;20126;-76
2021/01/30 13:51:53;;;;;;;10.30;3.50;;;;;;;;;;5028033;28;20056;-77
2021/01/30 13:54:19;;;;;;;14.10;3.33;;;;;;;;;;5031673;28;20724;-76
2021/01/30 13:56:45;;;;;;;14.33;4.37;;;;;;;;;;5031219;28;20778;-76
2021/01/30 13:59:11;;;;;;;17.63;5.00;;;;;;;;;;5027701;28;20025;-77
2021/01/30 14:01:38;;;;;;;13.20;5.33;;;;;;;;;;5027601;28;20021;-77
2021/01/30 14:04:06;;;;;;;11.00;3.67;;;;;;;;;;5026001;28;20041;-76
2021/01/30 14:06:32;;;;;;;24.33;7.30;;;;;;;;;;5029827;28;20780;-76
2021/01/30 14:08:58;;;;;;;23.23;8.67;;;;;;;;;;5021650;28;20029;-76
2021/01/30 14:11:27;;;;;;;10.00;2.80;;;;;;;;;;5023413;28;20037;-76
2021/01/30 14:13:54;;;;;;;11.33;2.90;;;;;;;;;;5030583;28;20033;-77
2021/01/30 14:16:21;;;;;;;26.40;11.43;;;;;;;;;;5027595;28;20029;-77
2021/01/30 14:18:47;;;;;;;16.60;8.17;;;;;;;;;;5029141;28;20028;-77
2021/01/30 14:21:19;;;;;;;7.20;3.63;;;;;;;;;;5028480;28;20140;-77
2021/01/30 14:23:45;;;;;;;7.20;2.53;;;;;;;;;;5025391;28;20025;-77
2021/01/30 14:26:12;;;;;;;7.83;3.43;;;;;;;;;;5029274;28;20065;-77
2021/01/30 14:28:39;;;;;;;12.37;5.87;;;;;;;;;;5035274;28;20282;-76
2021/01/30 14:31:05;;;;;;;6.43;2.43;;;;;;;;;;5030162;28;20130;-77
2021/01/30 14:33:32;;;;;;;9.07;3.03;;;;;;;;;;5028957;28;20095;-77
2021/01/30 14:35:58;;;;;;;10.23;4.10;;;;;;;;;;5032462;28;20028;-76
2021/01/30 14:38:25;;;;;;;13.20;6.83;;;;;;;;;;5028414;28;20034;-76
2021/01/30 14:40:51;;;;;;;10.33;3.60;;;;;;;;;;5028920;28;20736;-76
2021/01/30 14:43:17;;;;;;;6.80;2.93;;;;;;;;;;5028753;28;20049;-77
2021/01/30 14:45:43;;;;;;;11.67;4.47;;;;;;;;;;5026138;28;20026;-76
2021/01/30 14:48:10;;;;;;;28.37;17.70;;;;;;;;;;5028922;28;20042;-76
2021/01/30 14:50:36;;;;;;;4.37;1.93;;;;;;;;;;5029293;28;20041;-76
2021/01/30 14:53:04;;;;;;;4.70;1.30;;;;;;;;;;5029145;28;20040;-76
2021/01/30 14:55:32;;;;;;;6.13;1.70;;;;;;;;;;5033104;28;20281;-75
2021/01/30 14:57:59;;;;;;;5.30;1.20;;;;;;;;;;5022015;28;20116;-76
2021/01/30 15:00:26;;;;;;;5.33;1.93;;;;;;;;;;5038752;28;20064;-75